Time;durP1;ratioP1;P1;durP2;ratioP2;P2;SDS_P1;SDS_P2;PMS_P1;PMS_P2;Temp;Humidity;BMP_temperature;BMP_pressure;BME280_temperature;BME280_humidity;BME280_pressure;Samples;Min_cycle;Max_cycle;Signal;HPM_P1;HPM_P2
2022/07/23 04:01:19;;;;;;;3.40;3.30;;;15.30;99.90;;;;;;5558323;23;21009;-71
2022/07/23 04:03:46;;;;;;;3.50;3.30;;;15.40;99.90;;;;;;4989259;28;20456;-70
2022/07/23 04:06:13;;;;;;;3.50;3.30;;;15.50;99.90;;;;;;4990018;28;20466;-69
2022/07/23 04:08:39;;;;;;;3.13;3.03;;;15.50;99.90;;;;;;4982194;28;20537;-68
2022/07/23 04:11:06;;;;;;;3.17;3.00;;;15.60;99.90;;;;;;4981190;28;20490;-69
2022/07/23 04:13:33;;;;;;;4.03;3.73;;;15.60;99.90;;;;;;4996990;23;20471;-69
2022/07/23 04:16:00;;;;;;;3.77;3.67;;;15.80;99.90;;;;;;5004959;28;20521;-70
2022/07/23 04:18:28;;;;;;;3.33;3.13;;;15.70;99.90;;;;;;5005610;28;20957;-70
2022/07/23 04:20:55;;;;;;;2.83;2.70;;;;;;;;;;5012851;28;20483;-70
2022/07/23 04:23:22;;;;;;;3.13;2.83;;;;;;;;;;5003295;28;20457;-70
2022/07/23 04:25:49;;;;;;;3.47;3.23;;;15.90;99.90;;;;;;4975194;28;20953;-72
2022/07/23 04:28:15;;;;;;;4.23;3.23;;;15.80;99.90;;;;;;4984533;28;20682;-70
2022/07/23 04:30:42;;;;;;;3.37;3.23;;;15.80;99.90;;;;;;4982868;28;20476;-70
2022/07/23 04:33:09;;;;;;;3.50;3.23;;;15.80;99.90;;;;;;4993569;28;20479;-70
2022/07/23 04:35:38;;;;;;;3.17;2.80;;;15.80;99.90;;;;;;4985489;28;20499;-70
2022/07/23 04:38:04;;;;;;;3.93;3.40;;;15.80;99.90;;;;;;4994153;28;20468;-70
2022/07/23 04:40:31;;;;;;;3.33;3.17;;;15.80;99.90;;;;;;4985110;28;20469;-69
2022/07/23 04:42:58;;;;;;;9.53;4.10;;;15.80;99.90;;;;;;4993492;28;20464;-69
2022/07/23 04:45:25;;;;;;;3.40;3.30;;;15.80;99.90;;;;;;4984306;28;20909;-71
2022/07/23 04:47:51;;;;;;;7.00;3.43;;;15.80;99.90;;;;;;4993252;28;20848;-69
2022/07/23 04:50:21;;;;;;;3.27;3.00;;;15.80;99.90;;;;;;4983099;28;20525;-69
2022/07/23 04:52:49;;;;;;;3.60;3.30;;;15.70;99.90;;;;;;4975413;28;20974;-69
2022/07/23 04:55:16;;;;;;;3.20;3.07;;;15.70;99.90;;;;;;4987912;28;21019;-69
2022/07/23 04:57:43;;;;;;;3.77;3.30;;;15.60;99.90;;;;;;4992254;28;20467;-68
2022/07/23 05:00:10;;;;;;;5.23;3.60;;;15.50;99.90;;;;;;4988440;28;20483;-69
2022/07/23 05:02:37;;;;;;;4.00;3.77;;;15.50;99.90;;;;;;4984983;28;20511;-69
2022/07/23 05:05:04;;;;;;;4.10;3.80;;;15.40;99.90;;;;;;4991220;28;20542;-70
2022/07/23 05:07:31;;;;;;;4.63;4.20;;;15.30;99.90;;;;;;4988241;28;20468;-69
2022/07/23 05:09:59;;;;;;;4.10;3.83;;;15.20;99.90;;;;;;4981514;28;20489;-71
2022/07/23 05:12:25;;;;;;;4.40;4.13;;;15.20;99.90;;;;;;4991240;28;20522;-70
2022/07/23 05:14:52;;;;;;;4.90;4.60;;;15.20;99.90;;;;;;4990695;28;20548;-69
2022/07/23 05:17:19;;;;;;;3.87;3.63;;;15.10;99.90;;;;;;4992265;28;20466;-70
2022/07/23 05:19:46;;;;;;;3.80;3.60;;;15.00;99.90;;;;;;4992344;28;20544;-70
2022/07/23 05:22:12;;;;;;;3.87;3.57;;;15.10;99.90;;;;;;4985419;28;20866;-69
2022/07/23 05:24:39;;;;;;;5.03;4.73;;;15.10;99.90;;;;;;4990431;28;20505;-68
2022/07/23 05:27:07;;;;;;;5.40;4.97;;;15.10;99.90;;;;;;4985949;28;20910;-69
2022/07/23 05:29:34;;;;;;;4.93;4.50;;;15.20;99.90;;;;;;4991168;28;20490;-70
2022/07/23 05:32:01;;;;;;;5.17;4.73;;;15.20;99.90;;;;;;4985080;28;20866;-69
2022/07/23 05:34:27;;;;;;;4.93;4.50;;;15.20;99.90;;;;;;4982002;28;20487;-69
2022/07/23 05:36:54;;;;;;;4.00;3.80;;;15.30;99.90;;;;;;4991648;28;20472;-71
2022/07/23 05:39:21;;;;;;;5.30;4.90;;;15.30;99.90;;;;;;4983485;28;20462;-69
2022/07/23 05:41:47;;;;;;;4.97;4.53;;;15.30;99.90;;;;;;4983895;28;20933;-69
2022/07/23 05:44:15;;;;;;;4.10;3.90;;;15.30;99.90;;;;;;4990610;28;20597;-71
2022/07/23 05:46:42;;;;;;;4.47;4.27;;;15.40;99.90;;;;;;4988474;28;20472;-71
2022/07/23 05:49:09;;;;;;;4.23;3.83;;;15.50;99.90;;;;;;4987654;28;20491;-69
2022/07/23 05:51:36;;;;;;;4.50;4.10;;;15.60;99.90;;;;;;4983888;28;20585;-69
2022/07/23 05:54:02;;;;;;;3.77;3.43;;;15.60;99.90;;;;;;4983385;28;20489;-72
2022/07/23 05:56:29;;;;;;;4.13;3.93;;;15.60;99.90;;;;;;4984837;28;20530;-69
2022/07/23 05:58:56;;;;;;;4.80;4.43;;;15.60;99.90;;;;;;4986664;28;20951;-68
2022/07/23 06:01:24;;;;;;;3.90;3.70;;;15.80;99.90;;;;;;4983560;28;20474;-71
2022/07/23 06:03:50;;;;;;;8.53;4.07;;;15.90;99.90;;;;;;4984070;28;20494;-71
2022/07/23 06:06:17;;;;;;;4.33;4.03;;;15.90;99.90;;;;;;4990139;28;20842;-68
2022/07/23 06:08:44;;;;;;;3.43;3.33;;;16.10;99.90;;;;;;4987383;28;20652;-69
2022/07/23 06:11:11;;;;;;;4.17;3.90;;;16.40;99.90;;;;;;4981116;28;20481;-69
2022/07/23 06:13:38;;;;;;;3.97;3.43;;;16.60;99.90;;;;;;4983867;28;20862;-70
2022/07/23 06:16:05;;;;;;;2.93;2.60;;;17.60;99.90;;;;;;4983781;28;20472;-70
2022/07/23 06:18:33;;;;;;;2.10;2.00;;;18.60;99.90;;;;;;4980454;28;20472;-69
2022/07/23 06:21:00;;;;;;;2.37;2.20;;;19.60;99.90;;;;;;4974977;28;20547;-71
2022/07/23 06:23:27;;;;;;;2.00;1.90;;;20.30;99.90;;;;;;4977739;28;20559;-72
2022/07/23 06:25:53;;;;;;;2.70;2.60;;;21.10;99.90;;;;;;4981671;28;20507;-70
2022/07/23 06:28:20;;;;;;;2.50;2.40;;;21.60;99.90;;;;;;4984702;28;21156;-69
2022/07/23 06:30:48;;;;;;;2.30;2.00;;;21.80;99.90;;;;;;4984595;28;20484;-69
2022/07/23 06:33:14;;;;;;;2.00;1.90;;;21.90;99.90;;;;;;4984972;28;20467;-74
2022/07/23 06:35:42;;;;;;;2.03;1.60;;;21.80;99.90;;;;;;4978312;28;21177;-68
2022/07/23 06:38:09;;;;;;;1.80;1.70;;;21.70;99.90;;;;;;4975409;28;20484;-67
2022/07/23 06:40:36;;;;;;;2.63;1.60;;;21.60;99.90;;;;;;4983562;28;20466;-69
2022/07/23 06:43:02;;;;;;;4.20;1.40;;;21.70;99.90;;;;;;4973210;28;20947;-68
2022/07/23 06:45:30;;;;;;;2.30;1.40;;;21.60;99.90;;;;;;4982453;28;20475;-68
2022/07/23 06:47:56;;;;;;;1.92;1.70;;;21.80;99.90;;;;;;4976989;28;20457;-71
2022/07/23 06:50:23;;;;;;;3.70;1.30;;;21.50;99.90;;;;;;4982071;28;20601;-70
2022/07/23 06:52:51;;;;;;;1.40;1.40;;;21.50;99.90;;;;;;4978229;28;20472;-68
2022/07/23 06:55:18;;;;;;;1.43;1.43;;;21.70;99.90;;;;;;4972247;28;21226;-69
2022/07/23 06:57:44;;;;;;;1.70;1.23;;;22.40;99.90;;;;;;4983267;28;20471;-70
2022/07/23 07:00:12;;;;;;;1.57;1.57;;;23.90;99.90;;;;;;4980545;28;20936;-68
2022/07/23 07:02:39;;;;;;;1.93;1.10;;;24.10;99.90;;;;;;4985978;28;20476;-69
2022/07/23 07:05:06;;;;;;;1.13;1.03;;;24.10;99.90;;;;;;4976812;28;20572;-69
2022/07/23 07:07:33;;;;;;;1.67;1.10;;;24.10;99.90;;;;;;4976500;28;20876;-69
2022/07/23 07:10:01;;;;;;;1.13;1.13;;;24.10;99.90;;;;;;4983414;28;20967;-69
2022/07/23 07:12:28;;;;;;;1.60;1.10;;;24.50;99.90;;;;;;4990624;28;20478;-69
2022/07/23 07:14:55;;;;;;;2.53;1.00;;;24.70;99.90;;;;;;4991181;28;20578;-70
2022/07/23 07:17:21;;;;;;;0.90;0.90;;;24.80;99.90;;;;;;4983750;28;20475;-73
2022/07/23 07:19:48;;;;;;;1.47;1.23;;;25.30;99.90;;;;;;4984323;28;20456;-69
2022/07/23 07:22:15;;;;;;;1.47;1.00;;;25.70;99.90;;;;;;4987229;28;20495;-70
2022/07/23 07:24:42;;;;;;;3.17;1.10;;;25.60;99.90;;;;;;4986224;28;20855;-69
2022/07/23 07:27:10;;;;;;;1.17;1.00;;;25.20;99.90;;;;;;4985872;28;20487;-69
2022/07/23 07:29:37;;;;;;;3.10;1.30;;;24.80;99.90;;;;;;4982252;28;21029;-68
2022/07/23 07:32:04;;;;;;;4.03;1.23;;;24.70;99.90;;;;;;4987476;28;22074;-69
2022/07/23 07:34:31;;;;;;;1.83;1.13;;;25.20;99.90;;;;;;4972083;28;21270;-70
2022/07/23 07:36:57;;;;;;;1.10;1.03;;;25.10;99.90;;;;;;4975083;28;20494;-70
2022/07/23 07:39:24;;;;;;;1.70;1.57;;;24.00;99.90;;;;;;4991101;28;20447;-68
2022/07/23 07:41:51;;;;;;;2.87;1.20;;;23.30;99.90;;;;;;4985871;28;20476;-67
2022/07/23 07:44:19;;;;;;;0.90;0.90;;;22.90;99.90;;;;;;4977843;28;20590;-69
2022/07/23 07:46:45;;;;;;;0.90;0.90;;;22.70;99.90;;;;;;4984972;28;20960;-73
2022/07/23 07:49:12;;;;;;;1.00;1.00;;;22.60;99.90;;;;;;4989374;28;20518;-69
2022/07/23 07:51:39;;;;;;;1.07;1.07;;;22.90;99.90;;;;;;4984573;28;20478;-69
2022/07/23 07:54:06;;;;;;;3.67;1.03;;;22.90;99.90;;;;;;4985122;28;20566;-69
2022/07/23 07:56:32;;;;;;;1.00;0.90;;;23.00;99.90;;;;;;4985070;28;20471;-69
2022/07/23 07:59:00;;;;;;;1.73;1.20;;;22.70;99.90;;;;;;4973158;28;20468;-69
2022/07/23 08:01:28;;;;;;;1.13;0.87;;;22.00;99.90;;;;;;4972643;28;20879;-69
2022/07/23 08:03:55;;;;;;;2.47;1.20;;;21.40;99.90;;;;;;4983154;28;20497;-69
2022/07/23 08:06:22;;;;;;;0.90;0.90;;;20.90;99.90;;;;;;4981398;28;20484;-69
2022/07/23 08:08:49;;;;;;;1.20;1.20;;;21.00;99.90;;;;;;4981985;28;20476;-69
2022/07/23 08:11:16;;;;;;;1.53;1.00;;;21.20;99.90;;;;;;4987283;28;20499;-68
2022/07/23 08:13:44;;;;;;;1.40;1.40;;;21.40;99.90;;;;;;4982940;28;21226;-69
2022/07/23 08:16:10;;;;;;;2.10;0.90;;;21.70;99.90;;;;;;4977641;28;20853;-69
2022/07/23 08:18:38;;;;;;;1.00;0.90;;;21.90;99.90;;;;;;4979224;28;21068;-69
2022/07/23 08:21:05;;;;;;;1.00;0.90;;;22.10;99.90;;;;;;4979135;28;20867;-69
2022/07/23 08:23:32;;;;;;;0.87;0.87;;;22.30;99.90;;;;;;4973500;28;20460;-69
2022/07/23 08:26:00;;;;;;;0.90;0.90;;;22.30;99.90;;;;;;4976973;28;20938;-69
2022/07/23 08:28:28;;;;;;;2.00;1.00;;;22.60;99.90;;;;;;4986657;28;20459;-69
2022/07/23 08:30:54;;;;;;;1.30;1.20;;;22.50;99.90;;;;;;4985891;28;20562;-69
2022/07/23 08:33:21;;;;;;;1.70;1.10;;;22.40;99.90;;;;;;4975586;28;20842;-69
2022/07/23 08:35:52;;;;;;;1.30;1.30;;;22.30;99.90;;;;;;4978428;28;20468;-69
2022/07/23 08:38:22;;;;;;;1.33;1.33;;;22.10;99.90;;;;;;4980804;28;20601;-69
2022/07/23 08:40:51;;;;;;;1.13;1.13;;;22.00;99.90;;;;;;4987991;28;20473;-68
2022/07/23 08:43:20;;;;;;;1.60;1.50;;;21.80;99.90;;;;;;4981360;28;20478;-68
2022/07/23 08:45:49;;;;;;;1.10;1.10;;;21.70;99.90;;;;;;4981372;28;20934;-68
2022/07/23 08:48:18;;;;;;;1.33;1.23;;;21.70;99.90;;;;;;4982608;28;20556;-68
2022/07/23 08:50:50;;;;;;;1.20;1.20;;;21.60;99.90;;;;;;4981731;28;20494;-68
2022/07/23 08:53:18;;;;;;;1.43;1.40;;;21.70;99.90;;;;;;4982061;28;20497;-69
2022/07/23 08:55:46;;;;;;;2.63;1.30;;;22.00;99.90;;;;;;4980625;28;20486;-71
2022/07/23 08:58:13;;;;;;;1.70;1.00;;;22.20;99.90;;;;;;4981354;28;20566;-70
2022/07/23 09:00:40;;;;;;;2.70;1.73;;;22.20;99.90;;;;;;4973775;28;20473;-69
2022/07/23 09:03:07;;;;;;;1.43;1.43;;;22.20;99.90;;;;;;4978648;28;20481;-70
2022/07/23 09:05:34;;;;;;;1.20;1.20;;;22.00;99.90;;;;;;4984549;28;20498;-69
2022/07/23 09:08:10;;;;;;;1.57;1.53;;;21.90;99.90;;;;;;4984090;28;20482;-71
2022/07/23 09:10:45;;;;;;;1.60;1.60;;;21.80;99.90;;;;;;4985687;28;20489;-69
2022/07/23 09:13:32;;;;;;;1.90;1.80;;;21.60;99.90;;;;;;4984104;28;20475;-70
2022/07/23 09:16:00;;;;;;;1.27;1.27;;;21.40;99.90;;;;;;4986871;28;20464;-70
2022/07/23 09:18:37;;;;;;;1.97;1.90;;;21.20;99.90;;;;;;4989230;28;20501;-70
2022/07/23 09:21:10;;;;;;;1.80;1.70;;;21.00;99.90;;;;;;4982789;28;20468;-70
2022/07/23 09:23:42;;;;;;;2.63;1.90;;;20.90;99.90;;;;;;4986416;28;20566;-70
2022/07/23 09:26:34;;;;;;;2.10;2.10;;;20.80;99.90;;;;;;4988631;28;20476;-70
2022/07/23 09:29:04;;;;;;;3.70;1.90;;;20.80;99.90;;;;;;4977259;28;20475;-69
2022/07/23 09:31:43;;;;;;;2.60;2.60;;;20.70;99.90;;;;;;4983228;28;20494;-70
2022/07/23 09:34:13;;;;;;;1.40;1.40;;;20.80;99.90;;;;;;4981150;28;20484;-73
2022/07/23 09:36:41;;;;;;;2.10;1.30;;;21.00;99.90;;;;;;4988662;28;20464;-71
2022/07/23 09:39:10;;;;;;;1.80;1.80;;;21.20;99.90;;;;;;4990573;28;20468;-73
2022/07/23 09:41:40;;;;;;;1.40;1.40;;;21.20;99.90;;;;;;4986022;28;20464;-71
2022/07/23 09:44:14;;;;;;;1.20;1.20;;;21.20;99.90;;;;;;4985248;28;20498;-72
2022/07/23 09:46:41;;;;;;;2.40;1.33;;;21.20;99.90;;;;;;4987407;28;20475;-73
2022/07/23 09:49:14;;;;;;;1.10;1.10;;;21.10;99.90;;;;;;4980677;28;20507;-71
2022/07/23 09:51:53;;;;;;;1.50;1.50;;;20.90;99.90;;;;;;4981899;28;20484;-71
2022/07/23 09:54:34;;;;;;;1.57;1.40;;;20.80;99.90;;;;;;4982999;28;20483;-72
2022/07/23 09:57:06;;;;;;;1.53;1.43;;;20.50;99.90;;;;;;4975639;28;20810;-69
2022/07/23 09:59:35;;;;;;;1.37;1.27;;;20.90;99.90;;;;;;4988158;28;20991;-70
2022/07/23 10:02:02;;;;;;;1.70;1.60;;;21.00;99.90;;;;;;4985905;28;20465;-71
2022/07/23 10:04:30;;;;;;;1.50;1.20;;;21.00;99.90;;;;;;4985921;28;20489;-69
2022/07/23 10:06:59;;;;;;;1.20;1.20;;;21.20;99.90;;;;;;4991992;28;20463;-69
2022/07/23 10:09:30;;;;;;;1.07;1.07;;;21.20;99.90;;;;;;4990537;28;20464;-70
2022/07/23 10:12:07;;;;;;;1.43;1.33;;;21.20;99.90;;;;;;4986890;28;20493;-71
2022/07/23 10:14:34;;;;;;;1.00;1.00;;;21.20;99.90;;;;;;4984892;28;20864;-70
2022/07/23 10:17:02;;;;;;;1.20;1.13;;;21.20;99.90;;;;;;4985991;28;20553;-70
2022/07/23 10:19:29;;;;;;;1.80;1.10;;;21.20;99.90;;;;;;4979118;28;20493;-70
2022/07/23 10:22:00;;;;;;;1.00;0.80;;;21.30;99.90;;;;;;4975379;28;20465;-70
2022/07/23 10:24:46;;;;;;;1.03;1.03;;;21.40;99.90;;;;;;4984930;28;20496;-70
2022/07/23 10:27:54;;;;;;;1.00;1.00;;;21.50;99.90;;;;;;4984659;28;20542;-70
2022/07/23 10:30:28;;;;;;;0.90;0.90;;;21.50;99.90;;;;;;4985916;28;20496;-70
2022/07/23 10:33:10;;;;;;;1.30;1.20;;;21.50;99.90;;;;;;4977422;28;20582;-70
2022/07/23 10:35:43;;;;;;;1.00;1.00;;;21.60;99.90;;;;;;4988201;28;20590;-70
2022/07/23 10:38:17;;;;;;;1.90;0.90;;;21.60;99.90;;;;;;4986347;28;20469;-70
2022/07/23 10:40:57;;;;;;;1.17;1.13;;;21.60;99.90;;;;;;4980447;28;20973;-69
2022/07/23 10:43:25;;;;;;;0.97;0.97;;;21.80;99.90;;;;;;4983321;28;20472;-70
2022/07/23 10:45:53;;;;;;;1.00;1.00;;;21.90;99.90;;;;;;4980504;28;20492;-70
2022/07/23 10:48:21;;;;;;;0.77;0.77;;;22.00;99.90;;;;;;4985064;28;20476;-70
2022/07/23 10:51:10;;;;;;;0.80;0.80;;;21.90;99.90;;;;;;4977595;28;20489;-70
2022/07/23 10:53:59;;;;;;;0.70;0.70;;;22.10;99.90;;;;;;4976527;28;20489;-69
2022/07/23 10:56:59;;;;;;;0.67;0.67;;;22.00;99.90;;;;;;4980972;28;20725;-70
2022/07/23 10:59:27;;;;;;;0.83;0.73;;;22.10;99.90;;;;;;4977984;28;20466;-70
2022/07/23 11:01:54;;;;;;;0.70;0.50;;;22.30;99.90;;;;;;4985831;28;20465;-70
2022/07/23 11:04:50;;;;;;;0.70;0.70;;;22.50;99.90;;;;;;4987488;28;20493;-69
2022/07/23 11:07:16;;;;;;;0.50;0.50;;;22.40;99.90;;;;;;4982584;28;21047;-71
2022/07/23 11:09:45;;;;;;;0.70;0.70;;;22.30;99.90;;;;;;4982667;28;20491;-69
2022/07/23 11:12:35;;;;;;;0.73;0.73;;;22.00;99.90;;;;;;4980169;28;20496;-69
2022/07/23 11:15:06;;;;;;;0.63;0.63;;;21.90;99.90;;;;;;4986637;28;20910;-71
2022/07/23 11:17:34;;;;;;;0.60;0.60;;;21.70;99.90;;;;;;4980238;28;20465;-71
2022/07/23 11:20:18;;;;;;;3.40;1.27;;;21.60;99.90;;;;;;4986590;28;20476;-70
2022/07/23 11:22:51;;;;;;;0.60;0.60;;;21.70;99.90;;;;;;4990414;28;20957;-69
2022/07/23 11:25:45;;;;;;;1.33;0.80;;;21.90;99.90;;;;;;4975132;28;21010;-70
2022/07/23 11:28:15;;;;;;;0.70;0.70;;;21.90;99.90;;;;;;4941039;28;20519;-70
2022/07/23 11:30:45;;;;;;;1.00;0.83;;;21.90;99.90;;;;;;4979888;28;20539;-70
2022/07/23 11:33:21;;;;;;;0.80;0.70;;;22.00;99.90;;;;;;4971188;28;20493;-69
2022/07/23 11:35:50;;;;;;;0.80;0.80;;;22.00;99.90;;;;;;4972093;28;20512;-70
2022/07/23 11:38:19;;;;;;;0.87;0.87;;;21.90;99.90;;;;;;4971266;28;20846;-70
2022/07/23 11:40:48;;;;;;;0.63;0.63;;;21.70;99.90;;;;;;4971859;28;20873;-70
2022/07/23 11:43:16;;;;;;;1.00;0.83;;;21.70;99.90;;;;;;4971031;28;20450;-71
2022/07/23 11:45:47;;;;;;;0.60;0.60;;;21.90;99.90;;;;;;4984562;28;20480;-70
2022/07/23 11:48:18;;;;;;;0.70;0.70;;;22.00;99.90;;;;;;4974841;28;20462;-71
2022/07/23 11:50:45;;;;;;;0.77;0.77;;;22.20;99.90;;;;;;4971785;28;20545;-71
2022/07/23 11:53:12;;;;;;;0.60;0.60;;;22.00;99.90;;;;;;4971114;28;20954;-70
2022/07/23 11:55:39;;;;;;;0.73;0.73;;;21.90;99.90;;;;;;4972063;28;20485;-70
2022/07/23 11:58:06;;;;;;;0.73;0.70;;;21.90;99.90;;;;;;4971311;28;20492;-71
2022/07/23 12:00:33;;;;;;;1.17;0.70;;;21.90;99.90;;;;;;4971953;28;20461;-70
2022/07/23 12:03:04;;;;;;;0.80;0.80;;;21.90;99.90;;;;;;4977863;28;20471;-69
2022/07/23 12:05:33;;;;;;;0.80;0.60;;;21.90;99.90;;;;;;4974455;28;20500;-71
2022/07/23 12:08:01;;;;;;;0.60;0.60;;;21.90;99.90;;;;;;4971337;28;20469;-70
2022/07/23 12:10:29;;;;;;;1.17;0.70;;;22.00;99.90;;;;;;4981826;28;20465;-70
2022/07/23 12:12:58;;;;;;;0.67;0.67;;;22.10;99.90;;;;;;4990329;28;20549;-70
2022/07/23 12:15:26;;;;;;;0.40;0.40;;;22.40;99.90;;;;;;4980340;28;20497;-70
2022/07/23 12:17:54;;;;;;;0.73;0.73;;;22.40;99.90;;;;;;4972349;28;20556;-71
2022/07/23 12:20:24;;;;;;;0.70;0.70;;;22.60;99.90;;;;;;4971188;28;20553;-69
2022/07/23 12:22:54;;;;;;;0.73;0.73;;;22.60;99.90;;;;;;4971105;28;20462;-69
2022/07/23 12:25:22;;;;;;;0.50;0.50;;;22.50;99.90;;;;;;4971504;28;20486;-70
2022/07/23 12:28:01;;;;;;;0.80;0.60;;;22.70;99.90;;;;;;4970934;28;20490;-70
2022/07/23 12:30:29;;;;;;;3.20;0.83;;;22.70;99.90;;;;;;4971681;28;20915;-70
2022/07/23 12:32:58;;;;;;;0.80;0.80;;;22.80;99.90;;;;;;4975284;28;20994;-69
2022/07/23 12:35:32;;;;;;;2.27;0.80;;;22.90;99.90;;;;;;4990637;28;20480;-69
2022/07/23 12:38:02;;;;;;;0.63;0.40;;;22.90;99.90;;;;;;4994278;28;20477;-70
2022/07/23 12:40:30;;;;;;;0.73;0.60;;;22.80;99.90;;;;;;4994221;28;20469;-70
2022/07/23 12:42:59;;;;;;;1.57;0.60;;;22.60;99.90;;;;;;4994097;28;20984;-70
2022/07/23 12:45:27;;;;;;;0.57;0.57;;;22.70;99.90;;;;;;4994870;28;20485;-68
2022/07/23 12:47:58;;;;;;;0.67;0.60;;;22.80;99.90;;;;;;4992045;28;20820;-70
2022/07/23 12:50:38;;;;;;;0.60;0.60;;;22.80;99.90;;;;;;4984622;28;20805;-70
2022/07/23 12:53:06;;;;;;;1.70;0.90;;;22.90;99.90;;;;;;4974641;28;20465;-69
2022/07/23 12:55:33;;;;;;;2.10;0.80;;;22.90;99.90;;;;;;4975237;28;20482;-69
2022/07/23 12:58:15;;;;;;;0.50;0.50;;;22.90;99.90;;;;;;4974657;28;20473;-69
2022/07/23 13:01:06;;;;;;;0.40;0.40;;;22.90;99.90;;;;;;4981084;28;20472;-71
2022/07/23 13:03:36;;;;;;;0.60;0.60;;;22.70;99.90;;;;;;4993323;28;20541;-71
2022/07/23 13:06:06;;;;;;;0.67;0.63;;;22.40;99.90;;;;;;4980179;28;21006;-70
2022/07/23 13:08:34;;;;;;;1.33;0.60;;;22.30;99.90;;;;;;4979934;28;20543;-70
2022/07/23 13:11:01;;;;;;;1.00;0.83;;;22.50;99.90;;;;;;4985129;28;20473;-71
2022/07/23 13:13:30;;;;;;;1.87;0.63;;;22.60;99.90;;;;;;4975107;28;20497;-71
2022/07/23 13:15:58;;;;;;;0.50;0.50;;;22.60;99.90;;;;;;4981524;28;20473;-70
2022/07/23 13:18:25;;;;;;;0.67;0.67;;;22.40;99.90;;;;;;4983191;28;20571;-71
2022/07/23 13:20:52;;;;;;;1.17;0.73;;;22.20;99.90;;;;;;4989364;28;20472;-71
2022/07/23 13:23:20;;;;;;;1.20;1.20;;;22.20;99.90;;;;;;4988439;28;20471;-69
2022/07/23 13:25:48;;;;;;;0.80;0.80;;;22.30;99.90;;;;;;4979235;28;20469;-68
2022/07/23 13:28:15;;;;;;;2.00;1.70;;;22.30;99.90;;;;;;4981890;28;20823;-69
2022/07/23 13:30:43;;;;;;;1.27;0.97;;;22.20;99.90;;;;;;4988705;28;20834;-69
2022/07/23 13:33:10;;;;;;;0.90;0.90;;;22.50;99.90;;;;;;4984491;28;20499;-69
2022/07/23 13:35:37;;;;;;;0.93;0.90;;;22.60;99.90;;;;;;4989963;28;20973;-69
2022/07/23 13:38:07;;;;;;;0.80;0.70;;;22.70;99.90;;;;;;4980447;28;20500;-69
2022/07/23 13:40:36;;;;;;;2.30;1.07;;;22.80;99.90;;;;;;4990118;28;21037;-69
2022/07/23 13:43:03;;;;;;;0.70;0.60;;;22.80;99.90;;;;;;4973060;28;20458;-68
2022/07/23 13:45:29;;;;;;;0.93;0.80;;;22.60;99.90;;;;;;4981871;28;20493;-69
2022/07/23 13:47:56;;;;;;;1.33;1.33;;;22.50;99.90;;;;;;4979868;28;20477;-71
2022/07/23 13:50:23;;;;;;;0.63;0.60;;;22.50;99.90;;;;;;4982327;28;20472;-69
2022/07/23 13:52:50;;;;;;;0.67;0.67;;;22.50;99.90;;;;;;4982208;28;20712;-69
2022/07/23 13:55:17;;;;;;;0.60;0.57;;;22.60;99.90;;;;;;4984135;28;21236;-69
2022/07/23 13:57:45;;;;;;;0.43;0.43;;;22.70;99.90;;;;;;4982287;28;20961;-68
2022/07/23 14:00:13;;;;;;;0.60;0.60;;;22.50;99.90;;;;;;4981435;28;20564;-69
2022/07/23 14:02:41;;;;;;;0.70;0.60;;;22.40;99.90;;;;;;4974980;28;21270;-69
2022/07/23 14:05:10;;;;;;;0.60;0.60;;;22.50;99.90;;;;;;4986934;28;20497;-68
2022/07/23 14:07:37;;;;;;;0.83;0.77;;;22.60;99.90;;;;;;4985938;28;20896;-70
2022/07/23 14:10:05;;;;;;;0.97;0.70;;;22.50;99.90;;;;;;4987961;28;20477;-68
2022/07/23 14:12:32;;;;;;;1.03;0.70;;;22.50;99.90;;;;;;4977968;28;20499;-72
2022/07/23 14:15:00;;;;;;;0.60;0.47;;;22.30;99.90;;;;;;4986447;28;21005;-69
2022/07/23 14:17:27;;;;;;;2.23;0.60;;;22.20;99.90;;;;;;4987749;28;20503;-69
2022/07/23 14:19:54;;;;;;;0.87;0.70;;;22.30;99.90;;;;;;4985088;28;20496;-69
2022/07/23 14:22:21;;;;;;;0.50;0.50;;;22.50;99.90;;;;;;4984105;28;20479;-68
2022/07/23 14:24:47;;;;;;;0.60;0.50;;;22.40;99.90;;;;;;4979340;28;20500;-69
2022/07/23 14:27:14;;;;;;;0.70;0.70;;;22.30;99.90;;;;;;4985740;28;20476;-71
2022/07/23 14:29:41;;;;;;;2.20;1.00;;;22.30;99.90;;;;;;4973053;28;20472;-68
2022/07/23 14:32:09;;;;;;;0.80;0.80;;;22.10;99.90;;;;;;4985320;28;20496;-70
2022/07/23 14:34:36;;;;;;;1.00;1.00;;;21.90;99.90;;;;;;4973764;28;20489;-70
2022/07/23 14:37:03;;;;;;;1.37;1.03;;;21.80;99.90;;;;;;4988211;28;20500;-69
2022/07/23 14:39:30;;;;;;;0.80;0.80;;;21.70;99.90;;;;;;4973778;28;20515;-69
2022/07/23 14:41:57;;;;;;;1.70;1.00;;;21.70;99.90;;;;;;4980676;28;20952;-70
2022/07/23 14:44:23;;;;;;;0.70;0.70;;;21.80;99.90;;;;;;4982433;28;20555;-72
2022/07/23 14:46:50;;;;;;;0.60;0.60;;;21.80;99.90;;;;;;4979215;28;21280;-69
2022/07/23 14:49:18;;;;;;;0.87;0.73;;;21.70;99.90;;;;;;4980408;28;20476;-69
2022/07/23 14:51:45;;;;;;;0.80;0.80;;;21.70;99.90;;;;;;4985394;28;20982;-70
2022/07/23 14:54:13;;;;;;;2.00;1.13;;;21.70;99.90;;;;;;4991257;28;20514;-71
2022/07/23 14:56:40;;;;;;;1.10;1.00;;;21.70;99.90;;;;;;4982429;28;20492;-71
2022/07/23 14:59:07;;;;;;;0.93;0.70;;;21.80;99.90;;;;;;4981053;28;20473;-72
2022/07/23 15:01:34;;;;;;;0.60;0.60;;;21.80;99.90;;;;;;4973633;28;20605;-71
2022/07/23 15:04:01;;;;;;;1.90;0.70;;;21.80;99.90;;;;;;4985001;28;20495;-71
2022/07/23 15:06:29;;;;;;;0.87;0.87;;;21.60;99.90;;;;;;4987723;28;20984;-71
2022/07/23 15:08:56;;;;;;;0.80;0.80;;;21.60;99.90;;;;;;4989005;28;20472;-71
2022/07/23 15:11:23;;;;;;;0.70;0.70;;;21.70;99.90;;;;;;4977435;28;20484;-71
2022/07/23 15:13:50;;;;;;;0.60;0.60;;;21.80;99.90;;;;;;4982944;28;20543;-72
2022/07/23 15:16:16;;;;;;;0.80;0.80;;;21.90;99.90;;;;;;4991101;28;20468;-69
2022/07/23 15:18:43;;;;;;;0.77;0.77;;;22.00;99.90;;;;;;4987149;28;20873;-70
2022/07/23 15:21:10;;;;;;;0.57;0.57;;;21.90;99.90;;;;;;4991087;28;20464;-69
2022/07/23 15:23:39;;;;;;;0.70;0.70;;;21.90;99.90;;;;;;4983596;28;20488;-71
2022/07/23 15:26:06;;;;;;;0.70;0.70;;;21.90;99.90;;;;;;4991252;28;20496;-70
2022/07/23 15:28:33;;;;;;;0.90;0.83;;;21.90;99.90;;;;;;4988205;28;20526;-70
2022/07/23 15:31:00;;;;;;;1.00;0.97;;;22.00;99.90;;;;;;4978752;28;20531;-71
2022/07/23 15:33:26;;;;;;;0.70;0.70;;;22.30;99.90;;;;;;4982978;28;20556;-71
2022/07/23 15:35:55;;;;;;;0.90;0.90;;;22.40;99.90;;;;;;4977872;28;20946;-71
2022/07/23 15:38:22;;;;;;;0.80;0.80;;;22.40;99.90;;;;;;4985245;28;20465;-69
2022/07/23 15:40:50;;;;;;;1.00;1.00;;;22.20;99.90;;;;;;4978376;28;20542;-70
2022/07/23 15:43:16;;;;;;;0.70;0.70;;;21.90;99.90;;;;;;4977860;28;20480;-71
2022/07/23 15:45:44;;;;;;;0.80;0.80;;;21.90;99.90;;;;;;4980017;28;20478;-72
2022/07/23 15:48:10;;;;;;;0.93;0.83;;;21.90;99.90;;;;;;4988650;28;20467;-72
2022/07/23 15:50:37;;;;;;;1.90;1.00;;;22.10;99.90;;;;;;4987708;28;20464;-71
2022/07/23 15:53:04;;;;;;;0.80;0.80;;;22.00;99.90;;;;;;4984603;28;20510;-71
2022/07/23 15:55:31;;;;;;;1.63;1.07;;;22.00;99.90;;;;;;4981109;28;20841;-71
2022/07/23 15:57:59;;;;;;;1.00;1.00;;;22.10;99.90;;;;;;4983139;28;20914;-71
2022/07/23 16:00:26;;;;;;;0.70;0.70;;;22.10;99.90;;;;;;4982058;28;20526;-70
2022/07/23 16:02:52;;;;;;;0.83;0.80;;;22.10;99.90;;;;;;4982542;28;20570;-70
2022/07/23 16:05:31;;;;;;;0.80;0.60;;;21.90;99.90;;;;;;4982467;28;20492;-71
2022/07/23 16:07:58;;;;;;;0.90;0.90;;;22.00;99.90;;;;;;4982981;28;20478;-71
2022/07/23 16:10:25;;;;;;;0.60;0.60;;;22.00;99.90;;;;;;4981412;28;20790;-70
2022/07/23 16:12:52;;;;;;;1.13;0.80;;;22.20;99.90;;;;;;4986276;28;20573;-72
2022/07/23 16:15:20;;;;;;;0.60;0.60;;;22.00;99.90;;;;;;4983297;28;20864;-70
2022/07/23 16:17:47;;;;;;;1.10;0.87;;;21.80;99.90;;;;;;4982441;28;20533;-70
2022/07/23 16:20:14;;;;;;;0.90;0.90;;;21.70;99.90;;;;;;4985172;28;20469;-71
2022/07/23 16:22:41;;;;;;;0.93;0.93;;;21.60;99.90;;;;;;4993647;28;20471;-70
2022/07/23 16:25:08;;;;;;;0.90;0.70;;;21.40;99.90;;;;;;4989547;28;20499;-70
2022/07/23 16:27:38;;;;;;;1.07;1.07;;;21.40;99.90;;;;;;4988815;28;20565;-70
2022/07/23 16:30:06;;;;;;;0.60;0.50;;;21.60;99.90;;;;;;4993630;28;20581;-70
2022/07/23 16:32:34;;;;;;;1.50;1.43;;;21.70;99.90;;;;;;4981377;28;20557;-72
2022/07/23 16:35:01;;;;;;;0.97;0.93;;;21.60;99.90;;;;;;4984794;28;20890;-72
2022/07/23 16:37:28;;;;;;;1.70;1.03;;;21.70;99.90;;;;;;4983667;28;20494;-70
2022/07/23 16:39:54;;;;;;;1.60;1.30;;;21.60;99.90;;;;;;4980334;28;20477;-70
2022/07/23 16:42:22;;;;;;;1.00;1.00;;;21.70;99.90;;;;;;4988976;28;20459;-70
2022/07/23 16:44:48;;;;;;;0.87;0.80;;;21.70;99.90;;;;;;4989687;28;20544;-71
2022/07/23 16:47:15;;;;;;;0.83;0.83;;;21.70;99.90;;;;;;4991909;28;20481;-71
2022/07/23 16:49:43;;;;;;;2.10;0.77;;;21.70;99.90;;;;;;4986652;28;20528;-71
2022/07/23 16:52:10;;;;;;;1.93;0.80;;;21.60;99.90;;;;;;4978993;28;20924;-71
2022/07/23 16:54:36;;;;;;;0.73;0.73;;;21.50;99.90;;;;;;4981765;28;20507;-70
2022/07/23 16:57:03;;;;;;;1.60;0.97;;;21.40;99.90;;;;;;4989459;28;20470;-70